createdAt,value
2018-08-20T00:00:40.022Z,0.00
2018-08-20T00:01:40.175Z,0.00
2018-08-20T00:02:40.330Z,0.00
2018-08-20T00:03:40.487Z,0.00
2018-08-20T00:04:40.657Z,0.00
2018-08-20T00:05:40.810Z,0.00
2018-08-20T00:06:40.967Z,0.00
2018-08-20T00:07:41.123Z,0.00
2018-08-20T00:08:41.277Z,0.00
2018-08-20T00:09:41.435Z,0.00
2018-08-20T00:10:41.590Z,0.00
2018-08-20T00:11:41.739Z,0.00
2018-08-20T00:12:41.894Z,0.00
2018-08-20T00:13:42.052Z,0.00
2018-08-20T00:14:42.204Z,0.00
2018-08-20T00:15:42.358Z,0.00
2018-08-20T00:16:42.512Z,0.00
2018-08-20T00:17:42.667Z,0.00
2018-08-20T00:18:42.820Z,0.00
2018-08-20T00:19:42.978Z,0.00
2018-08-20T00:20:43.128Z,0.00
2018-08-20T00:21:43.281Z,0.00
2018-08-20T00:22:43.435Z,0.00
2018-08-20T00:23:43.589Z,0.00
2018-08-20T00:24:43.742Z,0.00
2018-08-20T00:25:43.895Z,0.00
2018-08-20T00:26:44.049Z,0.00
2018-08-20T00:27:44.207Z,0.00
2018-08-20T00:28:44.359Z,0.00
2018-08-20T00:29:44.514Z,0.00
2018-08-20T00:30:44.665Z,0.00
2018-08-20T00:31:44.821Z,0.00
2018-08-20T00:32:44.973Z,0.00
2018-08-20T00:33:45.126Z,0.00
2018-08-20T00:34:45.281Z,0.00
2018-08-20T00:35:45.434Z,0.00
2018-08-20T00:36:45.588Z,0.00
2018-08-20T00:37:45.742Z,0.00
2018-08-20T00:38:45.897Z,0.00
2018-08-20T00:39:46.053Z,0.00
2018-08-20T00:40:46.206Z,0.00
2018-08-20T00:41:46.364Z,0.00
2018-08-20T00:42:46.513Z,0.00
2018-08-20T00:43:46.668Z,0.00
2018-08-20T00:44:46.821Z,0.00
2018-08-20T00:45:46.984Z,0.00
2018-08-20T00:46:47.135Z,0.00
2018-08-20T00:47:47.288Z,0.00
2018-08-20T00:48:47.444Z,0.00
2018-08-20T00:49:47.597Z,0.00
2018-08-20T00:50:47.752Z,0.00
2018-08-20T00:51:47.905Z,0.00
2018-08-20T00:52:48.060Z,0.00
2018-08-20T00:53:48.215Z,0.00
2018-08-20T00:54:48.384Z,0.00
2018-08-20T00:55:48.524Z,0.00
2018-08-20T00:56:48.677Z,0.00
2018-08-20T00:57:48.834Z,0.00
2018-08-20T00:58:48.988Z,0.00
2018-08-20T00:59:49.140Z,0.00
2018-08-20T01:00:49.295Z,0.00
2018-08-20T01:01:49.447Z,0.00
2018-08-20T01:02:49.602Z,0.00
2018-08-20T01:03:49.754Z,0.00
2018-08-20T01:04:49.907Z,0.00
2018-08-20T01:05:50.064Z,0.00
2018-08-20T01:06:50.216Z,0.00
2018-08-20T01:07:50.378Z,0.00
2018-08-20T01:08:50.526Z,0.00
2018-08-20T01:09:50.680Z,0.00
2018-08-20T01:10:50.835Z,0.00
2018-08-20T01:11:50.990Z,0.00
2018-08-20T01:12:51.143Z,0.00
2018-08-20T01:13:51.296Z,0.00
2018-08-20T01:14:51.450Z,0.00
2018-08-20T01:15:51.604Z,0.00
2018-08-20T01:16:51.759Z,0.00
2018-08-20T01:17:51.913Z,0.00
2018-08-20T01:18:52.074Z,0.00
2018-08-20T01:19:52.222Z,0.00
2018-08-20T01:20:52.377Z,0.00
2018-08-20T01:21:52.530Z,0.00
2018-08-20T01:22:52.688Z,0.00
2018-08-20T01:23:52.840Z,0.00
2018-08-20T01:24:52.991Z,0.00
2018-08-20T01:25:53.146Z,0.00
2018-08-20T01:26:53.301Z,0.00
2018-08-20T01:27:53.452Z,0.00
2018-08-20T01:28:53.605Z,0.00
2018-08-20T01:29:53.758Z,0.00
2018-08-20T01:30:53.913Z,0.00
2018-08-20T01:31:54.068Z,0.00
2018-08-20T01:32:54.223Z,0.00
2018-08-20T01:33:54.375Z,0.00
2018-08-20T01:34:54.526Z,0.00
2018-08-20T01:35:54.680Z,0.00
2018-08-20T01:36:54.837Z,0.00
2018-08-20T01:37:54.986Z,0.00
2018-08-20T01:38:55.140Z,0.00
2018-08-20T01:39:55.295Z,0.00
2018-08-20T01:40:55.448Z,0.00
2018-08-20T01:41:55.605Z,0.00
2018-08-20T01:42:55.760Z,0.00
2018-08-20T01:43:55.916Z,0.00
2018-08-20T01:44:56.067Z,0.00
2018-08-20T01:45:56.225Z,0.00
2018-08-20T01:46:56.377Z,0.00
2018-08-20T01:47:56.528Z,0.00
2018-08-20T01:48:56.681Z,0.00
2018-08-20T01:49:56.839Z,0.00
2018-08-20T01:50:56.989Z,0.00
2018-08-20T01:51:57.142Z,0.00
2018-08-20T01:52:57.294Z,0.00
2018-08-20T01:53:57.449Z,0.00
2018-08-20T01:54:57.605Z,0.00
2018-08-20T01:55:57.755Z,0.00
2018-08-20T01:56:57.909Z,0.00
2018-08-20T01:57:58.063Z,0.00
2018-08-20T01:58:58.217Z,0.00
2018-08-20T01:59:58.372Z,0.00
2018-08-20T02:00:58.526Z,0.00
2018-08-20T02:01:58.678Z,0.00
2018-08-20T02:02:58.832Z,0.00
2018-08-20T02:03:58.987Z,0.00
2018-08-20T02:04:59.141Z,0.00
2018-08-20T02:05:59.302Z,0.00
2018-08-20T02:06:59.449Z,0.00
2018-08-20T02:07:59.603Z,0.00
2018-08-20T02:08:59.756Z,0.00
2018-08-20T02:09:59.910Z,0.00
2018-08-20T02:11:00.064Z,0.00
2018-08-20T02:12:00.216Z,0.00
2018-08-20T02:13:00.370Z,0.00
2018-08-20T02:14:00.527Z,0.00
2018-08-20T02:15:00.676Z,0.00
2018-08-20T02:16:00.829Z,0.00
2018-08-20T02:17:00.983Z,0.00
2018-08-20T02:18:01.138Z,0.00
2018-08-20T02:19:01.293Z,0.00
2018-08-20T02:20:01.448Z,0.00
2018-08-20T02:21:01.601Z,0.00
2018-08-20T02:22:01.753Z,0.00
2018-08-20T02:23:01.910Z,0.00
2018-08-20T02:24:02.062Z,0.00
2018-08-20T02:25:02.215Z,0.00
2018-08-20T02:26:02.370Z,0.00
2018-08-20T02:27:02.523Z,0.00
2018-08-20T02:28:02.673Z,0.00
2018-08-20T02:29:02.826Z,0.00
2018-08-20T02:30:02.982Z,0.00
2018-08-20T02:31:03.134Z,0.00
2018-08-20T02:32:03.287Z,0.00
2018-08-20T02:33:03.439Z,0.00
2018-08-20T02:34:03.596Z,0.00
2018-08-20T02:35:03.748Z,0.00
2018-08-20T02:36:03.903Z,0.00
2018-08-20T02:37:04.056Z,0.00
2018-08-20T02:38:04.212Z,0.00
2018-08-20T02:39:04.365Z,0.00
2018-08-20T02:40:04.520Z,0.00
2018-08-20T02:41:04.679Z,0.00
2018-08-20T02:42:04.827Z,0.00
2018-08-20T02:43:04.981Z,0.00
2018-08-20T02:44:05.132Z,0.00
2018-08-20T02:45:05.289Z,0.00
2018-08-20T02:46:05.447Z,0.00
2018-08-20T02:47:05.599Z,0.00
2018-08-20T02:48:05.749Z,0.00
2018-08-20T02:49:05.903Z,0.00
2018-08-20T02:50:06.057Z,0.00
2018-08-20T02:51:06.210Z,0.00
2018-08-20T02:52:06.364Z,0.00
2018-08-20T02:53:06.518Z,0.00
2018-08-20T02:54:06.672Z,0.00
2018-08-20T02:55:06.827Z,0.00
2018-08-20T02:56:06.981Z,0.00
2018-08-20T02:57:07.133Z,0.00
2018-08-20T02:58:07.286Z,0.00
2018-08-20T02:59:07.442Z,0.00
2018-08-20T03:00:07.595Z,0.00
2018-08-20T03:01:07.752Z,0.00
2018-08-20T03:02:07.983Z,0.00
2018-08-20T03:03:08.075Z,0.00
2018-08-20T03:04:08.231Z,0.00
2018-08-20T03:05:08.385Z,0.00
2018-08-20T03:06:08.538Z,0.00
2018-08-20T03:07:08.692Z,0.00
2018-08-20T03:08:08.846Z,0.00
2018-08-20T03:09:09.001Z,0.00
2018-08-20T03:10:09.152Z,0.00
2018-08-20T03:11:09.304Z,0.00
2018-08-20T03:12:09.458Z,0.00
2018-08-20T03:13:09.612Z,0.00
2018-08-20T03:14:09.770Z,0.00
2018-08-20T03:15:09.914Z,0.00
2018-08-20T03:16:10.074Z,0.00
2018-08-20T03:17:10.224Z,0.00
2018-08-20T03:18:10.375Z,0.00
2018-08-20T03:19:10.530Z,0.00
2018-08-20T03:20:10.685Z,0.00
2018-08-20T03:21:10.837Z,0.00
2018-08-20T03:22:10.994Z,0.00
2018-08-20T03:23:11.144Z,0.00
2018-08-20T03:24:11.297Z,0.00
2018-08-20T03:25:11.450Z,0.00
2018-08-20T03:26:11.603Z,0.00
2018-08-20T03:27:11.755Z,0.00
2018-08-20T03:28:11.909Z,0.00
2018-08-20T03:29:12.064Z,0.00
2018-08-20T03:30:12.216Z,0.00
2018-08-20T03:31:12.372Z,0.00
2018-08-20T03:32:12.523Z,0.00
2018-08-20T03:33:12.676Z,0.00
2018-08-20T03:34:12.828Z,0.00
2018-08-20T03:35:12.983Z,0.00
2018-08-20T03:36:13.136Z,0.00
2018-08-20T03:37:13.286Z,0.00
2018-08-20T03:38:13.438Z,4.00
2018-08-20T03:39:13.591Z,4.00
2018-08-20T03:40:13.742Z,4.00
2018-08-20T03:41:13.895Z,0.00
2018-08-20T03:42:14.049Z,4.00
2018-08-20T03:43:14.203Z,4.00
2018-08-20T03:44:14.356Z,4.00
2018-08-20T03:45:14.511Z,8.00
2018-08-20T03:46:14.663Z,4.00
2018-08-20T03:47:14.818Z,8.00
2018-08-20T03:48:14.970Z,8.00
2018-08-20T03:49:15.123Z,8.00
2018-08-20T03:50:15.275Z,12.00
2018-08-20T03:51:15.427Z,16.00
2018-08-20T03:52:15.589Z,16.00
2018-08-20T03:53:15.733Z,16.00
2018-08-20T03:54:15.886Z,20.00
2018-08-20T03:55:16.037Z,24.00
2018-08-20T03:56:16.194Z,28.00
2018-08-20T03:57:16.349Z,32.00
2018-08-20T03:58:16.501Z,36.00
2018-08-20T03:59:16.655Z,44.00
2018-08-20T04:00:16.808Z,48.00
2018-08-20T04:01:16.962Z,56.00
2018-08-20T04:02:17.114Z,64.00
2018-08-20T04:03:17.275Z,72.00
2018-08-20T04:04:17.419Z,80.00
2018-08-20T04:05:17.575Z,92.00
2018-08-20T04:06:17.725Z,104.00
2018-08-20T04:07:17.880Z,116.00
2018-08-20T04:08:18.032Z,132.00
2018-08-20T04:09:18.187Z,144.00
2018-08-20T04:10:18.341Z,160.00
2018-08-20T04:11:18.493Z,176.00
2018-08-20T04:12:18.646Z,192.00
2018-08-20T04:13:18.800Z,216.00
2018-08-20T04:14:18.953Z,232.00
2018-08-20T04:15:19.109Z,260.00
2018-08-20T04:16:19.258Z,280.00
2018-08-20T04:17:19.411Z,304.00
2018-08-20T04:18:19.565Z,328.00
2018-08-20T04:19:19.722Z,356.00
2018-08-20T04:20:19.874Z,388.00
2018-08-20T04:21:20.026Z,416.00
2018-08-20T04:22:20.181Z,444.00
2018-08-20T04:23:20.333Z,472.00
2018-08-20T04:24:20.487Z,508.00
2018-08-20T04:25:20.640Z,544.00
2018-08-20T04:26:20.793Z,580.00
2018-08-20T04:27:20.949Z,612.00
2018-08-20T04:28:21.099Z,652.00
2018-08-20T04:29:21.255Z,696.00
2018-08-20T04:30:21.408Z,736.00
2018-08-20T04:31:21.562Z,780.00
2018-08-20T04:32:21.714Z,824.00
2018-08-20T04:33:21.872Z,872.00
2018-08-20T04:34:22.021Z,924.00
2018-08-20T04:35:22.175Z,968.00
2018-08-20T04:36:22.332Z,1024.00
2018-08-20T04:37:22.483Z,1072.00
2018-08-20T04:38:22.636Z,1124.00
2018-08-20T04:39:22.790Z,1180.00
2018-08-20T04:40:22.944Z,1232.00
2018-08-20T04:41:23.096Z,1280.00
2018-08-20T04:42:23.254Z,1336.00
2018-08-20T04:43:23.404Z,1388.00
2018-08-20T04:44:23.560Z,1440.00
2018-08-20T04:45:23.711Z,1492.00
2018-08-20T04:46:23.866Z,1540.00
2018-08-20T04:47:24.022Z,1588.00
2018-08-20T04:48:24.176Z,1636.00
2018-08-20T04:49:24.328Z,1684.00
2018-08-20T04:50:24.697Z,1728.00
2018-08-20T04:51:24.751Z,1784.00
2018-08-20T04:52:24.788Z,1832.00
2018-08-20T04:53:24.944Z,1872.00
2018-08-20T04:54:25.112Z,1904.00
2018-08-20T04:55:25.250Z,1940.00
2018-08-20T04:56:25.403Z,1980.00
2018-08-20T04:57:25.556Z,2028.00
2018-08-20T04:58:25.714Z,2080.00
2018-08-20T04:59:25.866Z,2128.00
2018-08-20T05:00:26.020Z,2176.00
2018-08-20T05:01:26.170Z,2228.00
2018-08-20T05:02:26.325Z,2272.00
2018-08-20T05:03:26.478Z,2308.00
2018-08-20T05:04:26.630Z,2340.00
2018-08-20T05:05:26.787Z,2372.00
2018-08-20T05:06:26.939Z,2412.00
2018-08-20T05:07:27.093Z,2460.00
2018-08-20T05:08:27.247Z,2500.00
2018-08-20T05:09:27.403Z,2528.00
2018-08-20T05:10:27.555Z,2544.00
2018-08-20T05:11:27.707Z,2568.00
2018-08-20T05:12:27.863Z,2608.00
2018-08-20T05:13:28.016Z,2612.00
2018-08-20T05:14:28.172Z,2576.00
2018-08-20T05:15:28.323Z,2548.00
2018-08-20T05:16:28.479Z,2560.00
2018-08-20T05:17:28.645Z,2592.00
2018-08-20T05:18:28.791Z,2644.00
2018-08-20T05:19:28.947Z,2764.00
2018-08-20T05:20:29.098Z,2880.00
2018-08-20T05:21:29.249Z,2888.00
2018-08-20T05:22:29.401Z,2868.00
2018-08-20T05:23:29.557Z,2896.00
2018-08-20T05:24:29.710Z,2920.00
2018-08-20T05:25:29.863Z,2992.00
2018-08-20T05:26:30.019Z,3128.00
2018-08-20T05:27:30.178Z,3300.00
2018-08-20T05:28:30.336Z,3408.00
2018-08-20T05:29:30.523Z,3424.00
2018-08-20T05:30:30.642Z,3364.00
2018-08-20T05:31:30.795Z,2972.00
2018-08-20T05:32:30.949Z,2764.00
2018-08-20T05:33:31.106Z,2756.00
2018-08-20T05:34:31.255Z,2808.00
2018-08-20T05:35:31.411Z,2784.00
2018-08-20T05:36:31.566Z,2736.00
2018-08-20T05:37:31.730Z,2600.00
2018-08-20T05:38:31.881Z,2592.00
2018-08-20T05:39:32.037Z,2600.00
2018-08-20T05:40:32.193Z,2656.00
2018-08-20T05:41:32.346Z,2752.00
2018-08-20T05:42:32.502Z,2788.00
2018-08-20T05:43:32.657Z,2808.00
2018-08-20T05:44:32.812Z,2924.00
2018-08-20T05:45:32.966Z,3060.00
2018-08-20T05:46:33.120Z,3188.00
2018-08-20T05:47:33.273Z,3228.00
2018-08-20T05:48:33.431Z,3168.00
2018-08-20T05:49:33.583Z,3116.00
2018-08-20T05:50:33.743Z,3132.00
2018-08-20T05:51:33.899Z,3248.00
2018-08-20T05:52:34.179Z,3352.00
2018-08-20T05:53:34.214Z,3376.00
2018-08-20T05:54:34.363Z,3160.00
2018-08-20T05:55:34.518Z,3072.00
2018-08-20T05:56:34.672Z,2940.00
2018-08-20T05:57:34.827Z,2872.00
2018-08-20T05:58:34.980Z,3028.00
2018-08-20T05:59:35.137Z,3280.00
2018-08-20T06:00:35.289Z,3468.00
2018-08-20T06:01:35.446Z,3416.00
2018-08-20T06:02:35.600Z,3408.00
2018-08-20T06:03:35.755Z,3432.00
2018-08-20T06:04:35.911Z,3348.00
2018-08-20T06:05:36.065Z,3340.00
2018-08-20T06:06:36.219Z,3284.00
2018-08-20T06:07:36.375Z,3572.00
2018-08-20T06:08:36.533Z,3872.00
2018-08-20T06:09:36.687Z,4124.00
2018-08-20T06:10:36.843Z,4508.00
2018-08-20T06:11:36.998Z,4536.00
2018-08-20T06:12:37.153Z,4508.00
2018-08-20T06:13:37.306Z,4388.00
2018-08-20T06:14:37.476Z,4144.00
2018-08-20T06:15:37.618Z,3828.00
2018-08-20T06:16:37.768Z,3828.00
2018-08-20T06:17:37.925Z,3796.00
2018-08-20T06:18:38.084Z,3476.00
2018-08-20T06:19:38.238Z,3272.00
2018-08-20T06:20:38.391Z,3052.00
2018-08-20T06:21:38.548Z,2764.00
2018-08-20T06:22:38.725Z,2512.00
2018-08-20T06:23:38.856Z,2328.00
2018-08-20T06:24:39.011Z,2236.00
2018-08-20T06:25:39.165Z,2220.00
2018-08-20T06:26:39.322Z,2304.00
2018-08-20T06:27:39.476Z,2272.00
2018-08-20T06:28:39.663Z,2152.00
2018-08-20T06:29:39.789Z,2156.00
2018-08-20T06:30:39.943Z,2204.00
2018-08-20T06:31:40.096Z,2196.00
2018-08-20T06:32:40.248Z,2172.00
2018-08-20T06:33:40.405Z,2156.00
2018-08-20T06:34:40.559Z,2164.00
2018-08-20T06:35:40.767Z,2156.00
2018-08-20T06:36:40.874Z,2124.00
2018-08-20T06:37:41.025Z,2108.00
2018-08-20T06:38:41.177Z,2200.00
2018-08-20T06:39:41.335Z,2292.00
2018-08-20T06:40:41.493Z,2372.00
2018-08-20T06:41:41.710Z,2512.00
2018-08-20T06:42:41.810Z,2676.00
2018-08-20T06:43:41.954Z,2744.00
2018-08-20T06:44:42.110Z,2780.00
2018-08-20T06:45:42.264Z,2788.00
2018-08-20T06:46:42.417Z,2848.00
2018-08-20T06:47:42.572Z,2956.00
2018-08-20T06:48:42.793Z,3108.00
2018-08-20T06:49:42.885Z,3252.00
2018-08-20T06:50:43.040Z,3424.00
2018-08-20T06:51:43.192Z,3520.00
2018-08-20T06:52:43.352Z,3548.00
2018-08-20T06:53:43.506Z,3504.00
2018-08-20T06:54:43.662Z,3536.00
2018-08-20T06:55:43.817Z,3660.00
2018-08-20T06:56:43.973Z,3812.00
2018-08-20T06:57:44.129Z,3992.00
2018-08-20T06:58:44.285Z,4104.00
2018-08-20T06:59:44.447Z,4252.00
2018-08-20T07:00:44.663Z,4280.00
2018-08-20T07:01:44.752Z,4240.00
2018-08-20T07:02:44.909Z,4284.00
2018-08-20T07:03:45.063Z,4388.00
2018-08-20T07:04:45.218Z,4468.00
2018-08-20T07:05:45.376Z,4492.00
2018-08-20T07:06:45.532Z,4644.00
2018-08-20T07:07:45.689Z,4928.00
2018-08-20T07:08:45.848Z,5304.00
2018-08-20T07:09:46.002Z,5624.00
2018-08-20T07:10:46.158Z,5628.00
2018-08-20T07:11:46.321Z,5440.00
2018-08-20T07:12:46.468Z,5240.00
2018-08-20T07:13:46.629Z,5132.00
2018-08-20T07:14:46.780Z,5224.00
2018-08-20T07:15:46.940Z,5416.00
2018-08-20T07:16:47.096Z,5552.00
2018-08-20T07:17:47.251Z,5576.00
2018-08-20T07:18:47.410Z,5532.00
2018-08-20T07:19:47.565Z,5416.00
2018-08-20T07:20:47.718Z,5264.00
2018-08-20T07:21:47.875Z,5140.00
2018-08-20T07:22:48.060Z,5056.00
2018-08-20T07:23:48.203Z,4876.00
2018-08-20T07:24:48.345Z,4684.00
2018-08-20T07:25:48.502Z,4548.00
2018-08-20T07:26:48.657Z,4476.00
2018-08-20T07:27:48.812Z,4508.00
2018-08-20T07:28:48.967Z,4720.00
2018-08-20T07:29:49.124Z,5076.00
2018-08-20T07:30:49.281Z,5444.00
2018-08-20T07:31:49.439Z,5800.00
2018-08-20T07:32:49.605Z,6164.00
2018-08-20T07:33:49.751Z,6496.00
2018-08-20T07:34:49.913Z,6724.00
2018-08-20T07:35:50.066Z,6860.00
2018-08-20T07:36:50.221Z,6952.00
2018-08-20T07:37:50.380Z,7168.00
2018-08-20T07:38:50.534Z,7316.00
2018-08-20T07:39:50.690Z,7360.00
2018-08-20T07:40:50.845Z,7344.00
2018-08-20T07:41:51.004Z,7320.00
2018-08-20T07:42:51.161Z,7316.00
2018-08-20T07:43:51.314Z,7504.00
2018-08-20T07:44:51.471Z,7728.00
2018-08-20T07:45:51.630Z,7824.00
2018-08-20T07:46:51.785Z,7992.00
2018-08-20T07:47:51.942Z,8096.00
2018-08-20T07:48:52.101Z,7976.00
2018-08-20T07:49:52.258Z,8040.00
2018-08-20T07:50:52.439Z,8200.00
2018-08-20T07:51:52.570Z,8556.00
2018-08-20T07:52:52.727Z,8928.00
2018-08-20T07:53:52.883Z,9288.00
2018-08-20T07:54:53.040Z,9604.00
2018-08-20T07:55:53.197Z,9788.00
2018-08-20T07:56:53.355Z,9740.00
2018-08-20T07:57:53.512Z,9644.00
2018-08-20T07:58:53.666Z,9588.00
2018-08-20T07:59:53.825Z,9536.00
2018-08-20T08:00:53.982Z,9436.00
2018-08-20T08:01:54.137Z,9384.00
2018-08-20T08:02:54.294Z,9168.00
2018-08-20T08:03:54.452Z,8892.00
2018-08-20T08:04:54.610Z,8820.00
2018-08-20T08:05:54.772Z,8500.00
2018-08-20T08:06:54.929Z,7948.00
2018-08-20T08:07:55.086Z,7888.00
2018-08-20T08:08:55.241Z,8160.00
2018-08-20T08:09:55.398Z,8488.00
2018-08-20T08:10:55.554Z,8940.00
2018-08-20T08:11:55.714Z,9356.00
2018-08-20T08:12:55.870Z,9508.00
2018-08-20T08:13:56.029Z,9536.00
2018-08-20T08:14:56.182Z,9492.00
2018-08-20T08:15:56.339Z,9484.00
2018-08-20T08:16:56.496Z,9320.00
2018-08-20T08:17:56.655Z,9108.00
2018-08-20T08:18:56.836Z,8908.00
2018-08-20T08:19:56.974Z,8984.00
2018-08-20T08:20:57.127Z,9284.00
2018-08-20T08:21:57.287Z,9516.00
2018-08-20T08:22:57.440Z,9352.00
2018-08-20T08:23:57.597Z,9072.00
2018-08-20T08:24:57.756Z,8740.00
2018-08-20T08:25:57.912Z,8408.00
2018-08-20T08:26:58.069Z,8100.00
2018-08-20T08:27:58.225Z,7712.00
2018-08-20T08:28:58.381Z,7328.00
2018-08-20T08:29:58.540Z,7076.00
2018-08-20T08:30:58.702Z,7048.00
2018-08-20T08:31:58.858Z,6964.00
2018-08-20T08:32:59.012Z,6916.00
2018-08-20T08:33:59.170Z,7260.00
2018-08-20T08:34:59.327Z,7964.00
2018-08-20T08:35:59.485Z,8740.00
2018-08-20T08:36:59.648Z,9356.00
2018-08-20T08:37:59.839Z,9760.00
2018-08-20T08:38:59.959Z,9816.00
2018-08-20T08:40:00.119Z,9608.00
2018-08-20T08:41:00.281Z,9160.00
2018-08-20T08:42:00.435Z,8696.00
2018-08-20T08:43:00.594Z,8376.00
2018-08-20T08:44:00.751Z,8092.00
2018-08-20T08:45:00.911Z,7772.00
2018-08-20T08:46:01.069Z,7484.00
2018-08-20T08:47:01.232Z,7228.00
2018-08-20T08:48:01.382Z,6972.00
2018-08-20T08:49:01.542Z,6708.00
2018-08-20T08:50:01.700Z,6356.00
2018-08-20T08:51:01.857Z,5960.00
2018-08-20T08:52:02.014Z,5604.00
2018-08-20T08:53:02.172Z,5380.00
2018-08-20T08:54:02.328Z,5224.00
2018-08-20T08:55:02.555Z,5088.00
2018-08-20T08:56:02.645Z,5172.00
2018-08-20T08:57:02.803Z,5372.00
2018-08-20T08:58:02.959Z,5608.00
2018-08-20T08:59:03.119Z,5752.00
2018-08-20T09:00:03.275Z,5732.00
2018-08-20T09:01:03.433Z,5656.00
2018-08-20T09:02:03.590Z,5516.00
2018-08-20T09:03:03.747Z,5256.00
2018-08-20T09:04:03.906Z,5020.00
2018-08-20T09:05:04.064Z,4940.00
2018-08-20T09:06:04.222Z,4932.00
2018-08-20T09:07:04.382Z,4956.00
2018-08-20T09:08:04.540Z,5028.00
2018-08-20T09:09:04.694Z,5176.00
2018-08-20T09:10:04.853Z,5416.00
2018-08-20T09:11:05.013Z,5772.00
2018-08-20T09:12:05.171Z,6176.00
2018-08-20T09:13:05.331Z,6516.00
2018-08-20T09:14:05.488Z,6652.00
2018-08-20T09:15:05.648Z,6716.00
2018-08-20T09:16:05.802Z,6988.00
2018-08-20T09:17:05.961Z,7456.00
2018-08-20T09:18:06.118Z,8004.00
2018-08-20T09:19:06.278Z,8440.00
2018-08-20T09:20:06.433Z,8816.00
2018-08-20T09:21:06.591Z,9276.00
2018-08-20T09:22:06.750Z,9704.00
2018-08-20T09:23:06.905Z,10044.00
2018-08-20T09:24:07.065Z,10412.00
2018-08-20T09:25:07.221Z,10908.00
2018-08-20T09:26:07.378Z,11496.00
2018-08-20T09:27:07.535Z,11916.00
2018-08-20T09:28:07.691Z,12012.00
2018-08-20T09:29:07.851Z,11880.00
2018-08-20T09:30:08.010Z,11560.00
2018-08-20T09:31:08.200Z,11104.00
2018-08-20T09:32:08.410Z,10600.00
2018-08-20T09:33:08.517Z,10316.00
2018-08-20T09:34:08.677Z,10256.00
2018-08-20T09:35:08.837Z,10376.00
2018-08-20T09:36:08.996Z,10800.00
2018-08-20T09:37:09.153Z,11436.00
2018-08-20T09:38:09.351Z,12076.00
2018-08-20T09:39:09.470Z,12508.00
2018-08-20T09:40:09.626Z,12736.00
2018-08-20T09:41:09.784Z,12720.00
2018-08-20T09:42:09.942Z,12504.00
2018-08-20T09:43:10.105Z,12224.00
2018-08-20T09:44:10.261Z,11876.00
2018-08-20T09:45:10.420Z,11744.00
2018-08-20T09:46:10.580Z,11880.00
2018-08-20T09:47:10.739Z,12144.00
2018-08-20T09:48:10.897Z,12400.00
2018-08-20T09:49:11.056Z,12732.00
2018-08-20T09:50:11.219Z,13064.00
2018-08-20T09:51:11.373Z,12960.00
2018-08-20T09:52:11.535Z,12616.00
2018-08-20T09:53:11.730Z,12420.00
2018-08-20T09:54:11.855Z,12276.00
2018-08-20T09:55:12.014Z,12316.00
2018-08-20T09:56:12.171Z,12344.00
2018-08-20T09:57:12.337Z,12024.00
2018-08-20T09:58:12.490Z,11496.00
2018-08-20T09:59:12.706Z,11088.00
2018-08-20T10:00:12.809Z,10948.00
2018-08-20T10:01:12.969Z,11000.00
2018-08-20T10:02:13.126Z,11416.00
2018-08-20T10:03:13.284Z,12332.00
2018-08-20T10:04:13.447Z,12860.00
2018-08-20T10:05:13.606Z,13152.00
2018-08-20T10:06:13.765Z,13544.00
2018-08-20T10:07:13.925Z,14220.00
2018-08-20T10:08:14.087Z,14720.00
2018-08-20T10:09:14.273Z,13700.00
2018-08-20T10:10:14.402Z,13624.00
2018-08-20T10:11:14.565Z,13116.00
2018-08-20T10:12:14.725Z,11596.00
2018-08-20T10:13:14.884Z,10464.00
2018-08-20T10:14:15.046Z,10488.00
2018-08-20T10:15:15.205Z,10756.00
2018-08-20T10:16:15.365Z,11096.00
2018-08-20T10:17:15.529Z,11532.00
2018-08-20T10:18:15.688Z,11492.00
2018-08-20T10:19:15.847Z,11200.00
2018-08-20T10:20:16.005Z,11148.00
2018-08-20T10:21:16.165Z,11136.00
2018-08-20T10:22:16.368Z,10840.00
2018-08-20T10:23:16.485Z,10984.00
2018-08-20T10:24:16.644Z,12032.00
2018-08-20T10:25:16.812Z,13440.00
2018-08-20T10:26:16.966Z,14160.00
2018-08-20T10:27:17.128Z,14500.00
2018-08-20T10:28:17.287Z,15968.00
2018-08-20T10:29:17.450Z,13924.00
2018-08-20T10:30:17.608Z,14816.00
2018-08-20T10:31:17.764Z,12932.00
2018-08-20T10:32:17.926Z,12680.00
2018-08-20T10:33:18.088Z,12272.00
2018-08-20T10:34:18.249Z,11608.00
2018-08-20T10:35:18.411Z,11652.00
2018-08-20T10:36:18.571Z,11692.00
2018-08-20T10:37:18.731Z,11812.00
2018-08-20T10:38:18.893Z,11764.00
2018-08-20T10:39:19.050Z,11308.00
2018-08-20T10:40:19.212Z,10900.00
2018-08-20T10:41:19.373Z,10924.00
2018-08-20T10:42:19.536Z,11160.00
2018-08-20T10:43:19.694Z,11792.00
2018-08-20T10:44:19.855Z,12188.00
2018-08-20T10:45:20.015Z,12228.00
2018-08-20T10:46:20.176Z,12624.00
2018-08-20T10:47:20.337Z,13204.00
2018-08-20T10:48:20.498Z,13304.00
2018-08-20T10:49:20.662Z,12916.00
2018-08-20T10:50:20.819Z,13012.00
2018-08-20T10:51:20.982Z,12900.00
2018-08-20T10:52:21.139Z,12704.00
2018-08-20T10:53:21.302Z,12160.00
2018-08-20T10:54:21.464Z,11388.00
2018-08-20T10:55:21.623Z,10868.00
2018-08-20T10:56:21.832Z,10480.00
2018-08-20T10:57:21.946Z,10032.00
2018-08-20T10:58:22.105Z,9996.00
2018-08-20T10:59:22.268Z,10396.00
2018-08-20T11:00:22.425Z,10876.00
2018-08-20T11:01:22.588Z,11168.00
2018-08-20T11:02:22.747Z,11288.00
2018-08-20T11:03:22.911Z,11472.00
2018-08-20T11:04:23.070Z,11868.00
2018-08-20T11:05:23.230Z,12304.00
2018-08-20T11:06:23.392Z,12784.00
2018-08-20T11:07:23.554Z,13464.00
2018-08-20T11:08:23.714Z,14068.00
2018-08-20T11:09:23.877Z,14268.00
2018-08-20T11:10:24.034Z,14224.00
2018-08-20T11:11:24.184Z,14072.00
2018-08-20T11:12:24.363Z,13960.00
2018-08-20T11:13:24.523Z,13896.00
2018-08-20T11:14:24.688Z,13700.00
2018-08-20T11:15:24.845Z,13604.00
2018-08-20T11:16:25.008Z,13552.00
2018-08-20T11:17:25.167Z,13192.00
2018-08-20T11:18:25.356Z,12716.00
2018-08-20T11:19:25.487Z,12184.00
2018-08-20T11:20:25.649Z,11620.00
2018-08-20T11:21:25.808Z,10900.00
2018-08-20T11:22:25.970Z,10352.00
2018-08-20T11:23:26.129Z,10108.00
2018-08-20T11:24:26.292Z,10504.00
2018-08-20T11:25:26.452Z,11864.00
2018-08-20T11:26:26.613Z,11844.00
2018-08-20T11:27:26.813Z,12516.00
2018-08-20T11:28:26.942Z,12364.00
2018-08-20T11:29:27.105Z,11360.00
2018-08-20T11:30:27.274Z,11908.00
2018-08-20T11:31:27.424Z,10740.00
2018-08-20T11:32:27.591Z,11444.00
2018-08-20T11:33:27.749Z,12380.00
2018-08-20T11:34:27.912Z,13240.00
2018-08-20T11:35:28.073Z,13512.00
2018-08-20T11:36:28.238Z,13504.00
2018-08-20T11:37:28.397Z,13312.00
2018-08-20T11:38:28.564Z,13012.00
2018-08-20T11:39:28.722Z,12644.00
2018-08-20T11:40:28.882Z,12324.00
2018-08-20T11:41:29.044Z,12004.00
2018-08-20T11:42:29.208Z,11976.00
2018-08-20T11:43:29.373Z,12048.00
2018-08-20T11:44:29.536Z,11928.00
2018-08-20T11:45:29.695Z,11516.00
2018-08-20T11:46:29.854Z,11132.00
2018-08-20T11:47:30.014Z,10836.00
2018-08-20T11:48:30.176Z,10520.00
2018-08-20T11:49:30.336Z,10072.00
2018-08-20T11:50:30.503Z,9344.00
2018-08-20T11:51:30.659Z,8508.00
2018-08-20T11:52:30.820Z,7760.00
2018-08-20T11:53:30.987Z,7152.00
2018-08-20T11:54:31.149Z,6692.00
2018-08-20T11:55:31.307Z,6316.00
2018-08-20T11:56:31.467Z,6032.00
2018-08-20T11:57:31.628Z,6008.00
2018-08-20T11:58:31.789Z,6132.00
2018-08-20T11:59:31.950Z,6348.00
2018-08-20T12:00:32.113Z,6516.00
2018-08-20T12:01:32.274Z,6804.00
2018-08-20T12:02:32.436Z,7236.00
2018-08-20T12:03:32.599Z,7668.00
2018-08-20T12:04:32.760Z,7852.00
2018-08-20T12:05:32.920Z,8068.00
2018-08-20T12:06:33.081Z,8372.00
2018-08-20T12:07:33.267Z,8688.00
2018-08-20T12:08:33.409Z,8736.00
2018-08-20T12:09:33.569Z,8524.00
2018-08-20T12:10:33.731Z,8432.00
2018-08-20T12:11:33.895Z,8292.00
2018-08-20T12:12:34.054Z,8040.00
2018-08-20T12:13:34.225Z,7636.00
2018-08-20T12:14:34.379Z,7320.00
2018-08-20T12:15:34.539Z,6996.00
2018-08-20T12:16:34.701Z,6660.00
2018-08-20T12:17:34.860Z,6272.00
2018-08-20T12:18:35.024Z,5948.00
2018-08-20T12:19:35.186Z,5728.00
2018-08-20T12:20:35.345Z,5648.00
2018-08-20T12:21:35.505Z,5732.00
2018-08-20T12:22:35.707Z,5756.00
2018-08-20T12:23:35.824Z,5680.00
2018-08-20T12:24:35.981Z,5568.00
2018-08-20T12:25:36.145Z,5468.00
2018-08-20T12:26:36.304Z,5364.00